KBMC

Details ICAO KBMC (BMC)
Name Brigham City
Region United States
Timezone America/Denver (UTC-6.0)
Plans Departing 6
Arriving 5
Stats Elevation 4,229 ft / 1,289 m (AMSL)
Location 41.552394° -112.062217°
Runways 1
Magnetic Variation 11.557° E
Sunrise 2018-05-25 12:02:02 UTC / 2018-05-25 06:02:02 Local
Sunset 2018-05-26 02:51:16 UTC / 2018-05-25 20:51:16 Local
Advertisement - Login to hide

Runways

ID Width Length Bearing (true) Bearing (mag) Surface Threshold Offset Overrun Length
16 98 ft / 30 m 7,511 ft / 2,289 m 179.50° 167.94° Asphalt 0 ft / 0 m 0 ft / 0 m
34 98 ft / 30 m 7,511 ft / 2,289 m 359.50° 347.94° Asphalt 0 ft / 0 m 0 ft / 0 m

Map

Weather


0- 5 10 15 20 25 30 35+ Temperature / ° C

Clouds and Precipitation
Forecast for 2018-05-25 12:00 UTC. Updated 27 minutes ago

Ground ~20,000 ft ~40,000 ft Winds

METAR

KBMC 250935Z AUTO 00000KT 10SM CLR 14/08 A3000 RMK AO1 T01380076

TAF

Not found

Frequencies

Recorded 135.07 MHz AWOS 3
Clearance 126.00 MHz CLNC DEL
Unicom 123.05 MHz CTAF/UNICOM
Approach 121.10 MHz APP/DEP
Warning: Do not use this data for real-world aviation or navigation. No guarantee of current accuracy is given.